sensor_id;sensor_type;location;lat;lon;timestamp;P1;durP1;ratioP1;P2;durP2;ratioP2
26690;SDS011;14307;51.718;8.938;2023-04-24T00:01:01;16.23;;;15.27;;
26690;SDS011;14307;51.718;8.938;2023-04-24T00:03:27;16.27;;;15.43;;
26690;SDS011;14307;51.718;8.938;2023-04-24T00:05:55;15.88;;;14.98;;
26690;SDS011;14307;51.718;8.938;2023-04-24T00:08:22;16.20;;;15.40;;
26690;SDS011;14307;51.718;8.938;2023-04-24T00:10:49;15.48;;;14.68;;
26690;SDS011;14307;51.718;8.938;2023-04-24T00:13:18;14.80;;;13.90;;
26690;SDS011;14307;51.718;8.938;2023-04-24T00:15:44;16.02;;;15.32;;
26690;SDS011;14307;51.718;8.938;2023-04-24T00:18:11;17.48;;;16.65;;
26690;SDS011;14307;51.718;8.938;2023-04-24T00:20:38;17.80;;;16.90;;
26690;SDS011;14307;51.718;8.938;2023-04-24T00:23:05;18.85;;;17.85;;
26690;SDS011;14307;51.718;8.938;2023-04-24T00:25:32;17.70;;;16.70;;
26690;SDS011;14307;51.718;8.938;2023-04-24T00:27:59;18.08;;;17.10;;
26690;SDS011;14307;51.718;8.938;2023-04-24T00:30:25;18.05;;;17.25;;
26690;SDS011;14307;51.718;8.938;2023-04-24T00:32:52;18.08;;;17.08;;
26690;SDS011;14307;51.718;8.938;2023-04-24T00:35:19;17.10;;;16.33;;
26690;SDS011;14307;51.718;8.938;2023-04-24T00:37:46;18.20;;;17.23;;
26690;SDS011;14307;51.718;8.938;2023-04-24T00:40:13;17.55;;;16.75;;
26690;SDS011;14307;51.718;8.938;2023-04-24T00:42:40;17.35;;;16.52;;
26690;SDS011;14307;51.718;8.938;2023-04-24T00:45:07;17.75;;;16.85;;
26690;SDS011;14307;51.718;8.938;2023-04-24T00:47:34;17.70;;;16.80;;
26690;SDS011;14307;51.718;8.938;2023-04-24T00:50:03;17.52;;;16.65;;
26690;SDS011;14307;51.718;8.938;2023-04-24T00:52:31;17.13;;;16.33;;
26690;SDS011;14307;51.718;8.938;2023-04-24T00:54:58;17.27;;;16.48;;
26690;SDS011;14307;51.718;8.938;2023-04-24T00:57:26;16.95;;;16.15;;
26690;SDS011;14307;51.718;8.938;2023-04-24T00:59:52;17.40;;;16.40;;
26690;SDS011;14307;51.718;8.938;2023-04-24T01:02:20;16.65;;;15.80;;
26690;SDS011;14307;51.718;8.938;2023-04-24T01:04:49;16.20;;;15.23;;
26690;SDS011;14307;51.718;8.938;2023-04-24T01:07:21;16.60;;;15.73;;
26690;SDS011;14307;51.718;8.938;2023-04-24T01:09:50;16.20;;;15.30;;
26690;SDS011;14307;51.718;8.938;2023-04-24T01:12:18;15.70;;;15.00;;
26690;SDS011;14307;51.718;8.938;2023-04-24T01:14:45;16.30;;;15.15;;
26690;SDS011;14307;51.718;8.938;2023-04-24T01:17:14;15.93;;;15.23;;
26690;SDS011;14307;51.718;8.938;2023-04-24T01:19:41;16.23;;;15.43;;
26690;SDS011;14307;51.718;8.938;2023-04-24T01:22:12;17.17;;;15.98;;
26690;SDS011;14307;51.718;8.938;2023-04-24T01:24:40;16.15;;;15.35;;
26690;SDS011;14307;51.718;8.938;2023-04-24T01:27:08;16.60;;;15.80;;
26690;SDS011;14307;51.718;8.938;2023-04-24T01:29:36;17.45;;;16.55;;
26690;SDS011;14307;51.718;8.938;2023-04-24T01:32:03;16.85;;;16.05;;
26690;SDS011;14307;51.718;8.938;2023-04-24T01:34:31;17.00;;;16.20;;
26690;SDS011;14307;51.718;8.938;2023-04-24T01:36:58;18.75;;;17.25;;
26690;SDS011;14307;51.718;8.938;2023-04-24T01:39:25;17.00;;;16.20;;
26690;SDS011;14307;51.718;8.938;2023-04-24T01:41:54;17.38;;;16.48;;
26690;SDS011;14307;51.718;8.938;2023-04-24T01:44:21;17.17;;;16.38;;
26690;SDS011;14307;51.718;8.938;2023-04-24T01:46:49;17.80;;;16.90;;
26690;SDS011;14307;51.718;8.938;2023-04-24T01:49:15;17.80;;;16.90;;
26690;SDS011;14307;51.718;8.938;2023-04-24T01:51:44;17.83;;;16.92;;
26690;SDS011;14307;51.718;8.938;2023-04-24T01:54:10;17.27;;;16.48;;
26690;SDS011;14307;51.718;8.938;2023-04-24T01:56:39;17.40;;;16.40;;
26690;SDS011;14307;51.718;8.938;2023-04-24T01:59:11;16.80;;;16.00;;
26690;SDS011;14307;51.718;8.938;2023-04-24T02:01:38;16.65;;;15.85;;
26690;SDS011;14307;51.718;8.938;2023-04-24T02:04:06;17.30;;;16.27;;
26690;SDS011;14307;51.718;8.938;2023-04-24T02:06:34;16.58;;;15.70;;
26690;SDS011;14307;51.718;8.938;2023-04-24T02:09:01;16.08;;;15.38;;
26690;SDS011;14307;51.718;8.938;2023-04-24T02:11:29;15.93;;;15.13;;
26690;SDS011;14307;51.718;8.938;2023-04-24T02:13:56;15.50;;;14.80;;
26690;SDS011;14307;51.718;8.938;2023-04-24T02:16:23;15.32;;;14.63;;
26690;SDS011;14307;51.718;8.938;2023-04-24T02:18:50;15.20;;;14.50;;
26690;SDS011;14307;51.718;8.938;2023-04-24T02:21:16;16.00;;;15.30;;
26690;SDS011;14307;51.718;8.938;2023-04-24T02:23:43;15.60;;;14.88;;
26690;SDS011;14307;51.718;8.938;2023-04-24T02:26:11;15.13;;;14.43;;
26690;SDS011;14307;51.718;8.938;2023-04-24T02:28:38;15.48;;;14.77;;
26690;SDS011;14307;51.718;8.938;2023-04-24T02:31:06;15.50;;;14.80;;
26690;SDS011;14307;51.718;8.938;2023-04-24T02:33:32;15.20;;;14.30;;
26690;SDS011;14307;51.718;8.938;2023-04-24T02:35:59;15.10;;;14.40;;
26690;SDS011;14307;51.718;8.938;2023-04-24T02:38:26;15.23;;;14.52;;
26690;SDS011;14307;51.718;8.938;2023-04-24T02:40:53;14.73;;;13.93;;
26690;SDS011;14307;51.718;8.938;2023-04-24T02:43:19;14.95;;;14.02;;
26690;SDS011;14307;51.718;8.938;2023-04-24T02:45:46;14.93;;;14.23;;
26690;SDS011;14307;51.718;8.938;2023-04-24T02:48:13;14.30;;;13.60;;
26690;SDS011;14307;51.718;8.938;2023-04-24T02:50:40;14.52;;;13.82;;
26690;SDS011;14307;51.718;8.938;2023-04-24T02:53:06;14.23;;;13.55;;
26690;SDS011;14307;51.718;8.938;2023-04-24T02:55:33;14.35;;;13.55;;
26690;SDS011;14307;51.718;8.938;2023-04-24T02:58:00;13.95;;;13.25;;
26690;SDS011;14307;51.718;8.938;2023-04-24T03:00:27;13.88;;;13.18;;
26690;SDS011;14307;51.718;8.938;2023-04-24T03:02:54;13.43;;;12.82;;
26690;SDS011;14307;51.718;8.938;2023-04-24T03:05:20;13.65;;;12.95;;
26690;SDS011;14307;51.718;8.938;2023-04-24T03:07:47;13.82;;;13.13;;
26690;SDS011;14307;51.718;8.938;2023-04-24T03:10:14;13.23;;;12.63;;
26690;SDS011;14307;51.718;8.938;2023-04-24T03:12:41;13.40;;;12.60;;
26690;SDS011;14307;51.718;8.938;2023-04-24T03:15:08;13.77;;;12.90;;
26690;SDS011;14307;51.718;8.938;2023-04-24T03:17:36;13.45;;;12.80;;
26690;SDS011;14307;51.718;8.938;2023-04-24T03:20:04;13.70;;;13.05;;
26690;SDS011;14307;51.718;8.938;2023-04-24T03:22:32;13.70;;;13.00;;
26690;SDS011;14307;51.718;8.938;2023-04-24T03:25:00;13.63;;;13.02;;
26690;SDS011;14307;51.718;8.938;2023-04-24T03:27:28;14.40;;;13.38;;
26690;SDS011;14307;51.718;8.938;2023-04-24T03:29:59;14.07;;;13.38;;
26690;SDS011;14307;51.718;8.938;2023-04-24T03:32:47;13.30;;;12.60;;
26690;SDS011;14307;51.718;8.938;2023-04-24T03:35:19;13.13;;;12.40;;
26690;SDS011;14307;51.718;8.938;2023-04-24T03:37:47;12.77;;;12.07;;
26690;SDS011;14307;51.718;8.938;2023-04-24T03:43:01;12.02;;;11.30;;
26690;SDS011;14307;51.718;8.938;2023-04-24T03:45:28;11.57;;;11.00;;
26690;SDS011;14307;51.718;8.938;2023-04-24T03:47:55;11.43;;;10.82;;
26690;SDS011;14307;51.718;8.938;2023-04-24T03:50:22;11.35;;;10.85;;
26690;SDS011;14307;51.718;8.938;2023-04-24T03:52:49;11.68;;;11.07;;
26690;SDS011;14307;51.718;8.938;2023-04-24T03:55:27;11.13;;;10.23;;
26690;SDS011;14307;51.718;8.938;2023-04-24T03:57:54;10.60;;;9.98;;
26690;SDS011;14307;51.718;8.938;2023-04-24T04:00:21;10.50;;;10.00;;
26690;SDS011;14307;51.718;8.938;2023-04-24T04:03:00;10.05;;;9.55;;
26690;SDS011;14307;51.718;8.938;2023-04-24T04:05:28;10.00;;;9.50;;
26690;SDS011;14307;51.718;8.938;2023-04-24T04:07:55;10.57;;;9.98;;
26690;SDS011;14307;51.718;8.938;2023-04-24T04:10:22;10.65;;;10.00;;
26690;SDS011;14307;51.718;8.938;2023-04-24T04:12:49;10.23;;;9.73;;
26690;SDS011;14307;51.718;8.938;2023-04-24T04:15:16;10.43;;;9.88;;
26690;SDS011;14307;51.718;8.938;2023-04-24T04:17:43;11.23;;;10.52;;
26690;SDS011;14307;51.718;8.938;2023-04-24T04:20:10;11.20;;;10.48;;
26690;SDS011;14307;51.718;8.938;2023-04-24T04:22:38;11.38;;;10.57;;
26690;SDS011;14307;51.718;8.938;2023-04-24T04:25:10;10.23;;;9.63;;
26690;SDS011;14307;51.718;8.938;2023-04-24T04:27:39;11.45;;;10.52;;
26690;SDS011;14307;51.718;8.938;2023-04-24T04:30:09;9.98;;;9.23;;
26690;SDS011;14307;51.718;8.938;2023-04-24T04:32:45;9.23;;;8.68;;
26690;SDS011;14307;51.718;8.938;2023-04-24T04:35:12;7.90;;;7.43;;
26690;SDS011;14307;51.718;8.938;2023-04-24T04:37:39;7.05;;;6.65;;
26690;SDS011;14307;51.718;8.938;2023-04-24T04:40:19;7.90;;;7.20;;
26690;SDS011;14307;51.718;8.938;2023-04-24T04:42:55;5.32;;;4.82;;
26690;SDS011;14307;51.718;8.938;2023-04-24T04:45:23;6.32;;;5.80;;
26690;SDS011;14307;51.718;8.938;2023-04-24T04:48:13;7.03;;;6.25;;
26690;SDS011;14307;51.718;8.938;2023-04-24T04:50:40;6.72;;;5.82;;
26690;SDS011;14307;51.718;8.938;2023-04-24T04:53:07;5.82;;;5.43;;
26690;SDS011;14307;51.718;8.938;2023-04-24T04:55:37;6.00;;;5.60;;
26690;SDS011;14307;51.718;8.938;2023-04-24T04:58:09;6.43;;;6.03;;
26690;SDS011;14307;51.718;8.938;2023-04-24T05:00:36;6.88;;;6.47;;
26690;SDS011;14307;51.718;8.938;2023-04-24T05:03:14;8.07;;;7.68;;
26690;SDS011;14307;51.718;8.938;2023-04-24T05:05:51;10.02;;;9.48;;
26690;SDS011;14307;51.718;8.938;2023-04-24T05:08:18;10.35;;;9.85;;
26690;SDS011;14307;51.718;8.938;2023-04-24T05:10:53;12.60;;;11.50;;
26690;SDS011;14307;51.718;8.938;2023-04-24T05:13:21;13.40;;;12.45;;
26690;SDS011;14307;51.718;8.938;2023-04-24T05:16:06;12.65;;;11.82;;
26690;SDS011;14307;51.718;8.938;2023-04-24T05:18:33;14.15;;;12.82;;
26690;SDS011;14307;51.718;8.938;2023-04-24T05:21:01;14.50;;;13.50;;
26690;SDS011;14307;51.718;8.938;2023-04-24T05:23:28;16.02;;;14.73;;
26690;SDS011;14307;51.718;8.938;2023-04-24T05:25:55;17.35;;;16.15;;
26690;SDS011;14307;51.718;8.938;2023-04-24T05:28:22;17.92;;;16.83;;
26690;SDS011;14307;51.718;8.938;2023-04-24T05:31:01;19.35;;;17.75;;
26690;SDS011;14307;51.718;8.938;2023-04-24T05:33:29;16.75;;;15.52;;
26690;SDS011;14307;51.718;8.938;2023-04-24T05:35:56;17.90;;;16.50;;
26690;SDS011;14307;51.718;8.938;2023-04-24T05:38:22;17.67;;;16.02;;
26690;SDS011;14307;51.718;8.938;2023-04-24T05:40:49;20.83;;;19.48;;
26690;SDS011;14307;51.718;8.938;2023-04-24T05:43:16;22.63;;;20.92;;
26690;SDS011;14307;51.718;8.938;2023-04-24T05:45:43;26.70;;;24.58;;
26690;SDS011;14307;51.718;8.938;2023-04-24T05:48:09;27.60;;;25.52;;
26690;SDS011;14307;51.718;8.938;2023-04-24T05:50:36;29.15;;;27.02;;
26690;SDS011;14307;51.718;8.938;2023-04-24T05:53:03;29.38;;;27.13;;
26690;SDS011;14307;51.718;8.938;2023-04-24T05:55:33;31.27;;;28.85;;
26690;SDS011;14307;51.718;8.938;2023-04-24T05:58:00;30.00;;;27.70;;
26690;SDS011;14307;51.718;8.938;2023-04-24T06:00:28;28.15;;;26.17;;
26690;SDS011;14307;51.718;8.938;2023-04-24T06:03:02;30.33;;;27.83;;
26690;SDS011;14307;51.718;8.938;2023-04-24T06:05:30;29.17;;;26.75;;
26690;SDS011;14307;51.718;8.938;2023-04-24T06:07:57;30.42;;;27.70;;
26690;SDS011;14307;51.718;8.938;2023-04-24T06:10:28;30.15;;;27.85;;
26690;SDS011;14307;51.718;8.938;2023-04-24T06:12:55;30.30;;;27.80;;
26690;SDS011;14307;51.718;8.938;2023-04-24T06:15:28;30.65;;;28.25;;
26690;SDS011;14307;51.718;8.938;2023-04-24T06:18:04;31.30;;;28.98;;
26690;SDS011;14307;51.718;8.938;2023-04-24T06:20:32;30.80;;;28.40;;
26690;SDS011;14307;51.718;8.938;2023-04-24T06:23:00;32.25;;;29.38;;
26690;SDS011;14307;51.718;8.938;2023-04-24T06:25:27;32.65;;;29.85;;
26690;SDS011;14307;51.718;8.938;2023-04-24T06:27:55;31.10;;;28.80;;
26690;SDS011;14307;51.718;8.938;2023-04-24T06:30:22;30.92;;;28.70;;
26690;SDS011;14307;51.718;8.938;2023-04-24T06:32:49;31.45;;;29.02;;
26690;SDS011;14307;51.718;8.938;2023-04-24T06:35:21;31.65;;;29.15;;
26690;SDS011;14307;51.718;8.938;2023-04-24T06:37:47;30.70;;;28.50;;
26690;SDS011;14307;51.718;8.938;2023-04-24T06:40:14;29.73;;;27.55;;
26690;SDS011;14307;51.718;8.938;2023-04-24T06:42:41;31.00;;;28.90;;
26690;SDS011;14307;51.718;8.938;2023-04-24T06:45:08;33.03;;;30.67;;
26690;SDS011;14307;51.718;8.938;2023-04-24T06:47:36;33.17;;;31.05;;
26690;SDS011;14307;51.718;8.938;2023-04-24T06:50:02;34.35;;;32.03;;
26690;SDS011;14307;51.718;8.938;2023-04-24T06:52:56;34.90;;;32.60;;
26690;SDS011;14307;51.718;8.938;2023-04-24T06:55:50;35.63;;;33.05;;
26690;SDS011;14307;51.718;8.938;2023-04-24T06:58:17;33.47;;;31.25;;
26690;SDS011;14307;51.718;8.938;2023-04-24T07:00:44;34.38;;;31.85;;
26690;SDS011;14307;51.718;8.938;2023-04-24T07:03:11;33.47;;;30.88;;
26690;SDS011;14307;51.718;8.938;2023-04-24T07:05:38;32.38;;;29.85;;
26690;SDS011;14307;51.718;8.938;2023-04-24T07:08:05;32.72;;;30.10;;
26690;SDS011;14307;51.718;8.938;2023-04-24T07:10:32;33.90;;;31.40;;
26690;SDS011;14307;51.718;8.938;2023-04-24T07:13:01;31.70;;;29.20;;
26690;SDS011;14307;51.718;8.938;2023-04-24T07:15:28;32.45;;;29.95;;
26690;SDS011;14307;51.718;8.938;2023-04-24T07:17:55;31.98;;;29.40;;
26690;SDS011;14307;51.718;8.938;2023-04-24T07:20:22;31.35;;;28.88;;
26690;SDS011;14307;51.718;8.938;2023-04-24T07:22:49;32.83;;;30.52;;
26690;SDS011;14307;51.718;8.938;2023-04-24T07:25:15;33.90;;;31.45;;
26690;SDS011;14307;51.718;8.938;2023-04-24T07:27:42;32.35;;;30.05;;
26690;SDS011;14307;51.718;8.938;2023-04-24T07:30:09;31.70;;;29.20;;
26690;SDS011;14307;51.718;8.938;2023-04-24T07:32:36;30.70;;;28.40;;
26690;SDS011;14307;51.718;8.938;2023-04-24T07:35:03;30.08;;;27.77;;
26690;SDS011;14307;51.718;8.938;2023-04-24T07:37:30;29.30;;;27.38;;
26690;SDS011;14307;51.718;8.938;2023-04-24T07:39:57;29.88;;;27.42;;
26690;SDS011;14307;51.718;8.938;2023-04-24T07:42:23;28.65;;;26.75;;
26690;SDS011;14307;51.718;8.938;2023-04-24T07:44:50;27.95;;;25.95;;
26690;SDS011;14307;51.718;8.938;2023-04-24T07:47:17;28.73;;;26.73;;
26690;SDS011;14307;51.718;8.938;2023-04-24T07:49:44;29.17;;;27.13;;
26690;SDS011;14307;51.718;8.938;2023-04-24T07:52:11;28.95;;;27.00;;
26690;SDS011;14307;51.718;8.938;2023-04-24T07:54:37;27.23;;;25.23;;
26690;SDS011;14307;51.718;8.938;2023-04-24T07:57:04;25.95;;;24.17;;
26690;SDS011;14307;51.718;8.938;2023-04-24T07:59:32;26.23;;;24.52;;
26690;SDS011;14307;51.718;8.938;2023-04-24T08:01:59;26.58;;;24.73;;
26690;SDS011;14307;51.718;8.938;2023-04-24T08:04:27;26.90;;;25.17;;
26690;SDS011;14307;51.718;8.938;2023-04-24T08:06:54;25.60;;;23.80;;
26690;SDS011;14307;51.718;8.938;2023-04-24T08:09:21;27.13;;;24.98;;
26690;SDS011;14307;51.718;8.938;2023-04-24T08:11:48;24.95;;;23.15;;
26690;SDS011;14307;51.718;8.938;2023-04-24T08:14:15;26.10;;;24.40;;
26690;SDS011;14307;51.718;8.938;2023-04-24T08:16:41;26.25;;;24.42;;
26690;SDS011;14307;51.718;8.938;2023-04-24T08:19:08;26.75;;;25.05;;
26690;SDS011;14307;51.718;8.938;2023-04-24T08:21:35;26.92;;;25.15;;
26690;SDS011;14307;51.718;8.938;2023-04-24T08:24:02;27.65;;;25.77;;
26690;SDS011;14307;51.718;8.938;2023-04-24T08:26:31;27.20;;;25.40;;
26690;SDS011;14307;51.718;8.938;2023-04-24T08:28:58;28.80;;;27.08;;
26690;SDS011;14307;51.718;8.938;2023-04-24T08:31:24;29.15;;;27.25;;
26690;SDS011;14307;51.718;8.938;2023-04-24T08:33:52;26.15;;;24.55;;
26690;SDS011;14307;51.718;8.938;2023-04-24T08:36:18;27.95;;;25.73;;
26690;SDS011;14307;51.718;8.938;2023-04-24T08:38:45;26.50;;;24.70;;
26690;SDS011;14307;51.718;8.938;2023-04-24T08:41:13;26.02;;;24.33;;
26690;SDS011;14307;51.718;8.938;2023-04-24T08:43:42;27.08;;;25.40;;
26690;SDS011;14307;51.718;8.938;2023-04-24T08:46:09;28.13;;;26.15;;
26690;SDS011;14307;51.718;8.938;2023-04-24T08:48:39;26.35;;;24.65;;
26690;SDS011;14307;51.718;8.938;2023-04-24T08:51:07;26.02;;;24.38;;
26690;SDS011;14307;51.718;8.938;2023-04-24T08:53:35;37.55;;;33.47;;
26690;SDS011;14307;51.718;8.938;2023-04-24T08:56:02;44.58;;;39.72;;
26690;SDS011;14307;51.718;8.938;2023-04-24T08:58:29;38.30;;;35.00;;
26690;SDS011;14307;51.718;8.938;2023-04-24T09:00:59;26.38;;;24.70;;
26690;SDS011;14307;51.718;8.938;2023-04-24T09:03:27;25.98;;;24.35;;
26690;SDS011;14307;51.718;8.938;2023-04-24T09:05:55;26.88;;;25.05;;
26690;SDS011;14307;51.718;8.938;2023-04-24T09:08:24;25.65;;;23.73;;
26690;SDS011;14307;51.718;8.938;2023-04-24T09:10:52;26.90;;;25.30;;
26690;SDS011;14307;51.718;8.938;2023-04-24T09:13:19;27.02;;;25.33;;
26690;SDS011;14307;51.718;8.938;2023-04-24T09:15:46;26.33;;;24.52;;
26690;SDS011;14307;51.718;8.938;2023-04-24T09:18:13;29.95;;;28.05;;
26690;SDS011;14307;51.718;8.938;2023-04-24T09:23:27;29.38;;;27.48;;
26690;SDS011;14307;51.718;8.938;2023-04-24T09:25:55;28.73;;;27.13;;
26690;SDS011;14307;51.718;8.938;2023-04-24T09:28:41;28.92;;;27.08;;
26690;SDS011;14307;51.718;8.938;2023-04-24T09:31:16;28.65;;;26.63;;
26690;SDS011;14307;51.718;8.938;2023-04-24T09:33:54;27.45;;;25.58;;
26690;SDS011;14307;51.718;8.938;2023-04-24T09:36:26;27.52;;;25.83;;
26690;SDS011;14307;51.718;8.938;2023-04-24T09:38:57;27.25;;;25.42;;
26690;SDS011;14307;51.718;8.938;2023-04-24T09:41:28;27.00;;;25.15;;
26690;SDS011;14307;51.718;8.938;2023-04-24T09:43:55;25.92;;;24.33;;
26690;SDS011;14307;51.718;8.938;2023-04-24T09:46:29;25.90;;;24.30;;
26690;SDS011;14307;51.718;8.938;2023-04-24T09:48:57;26.55;;;24.95;;
26690;SDS011;14307;51.718;8.938;2023-04-24T09:51:36;26.38;;;24.77;;
26690;SDS011;14307;51.718;8.938;2023-04-24T09:54:04;26.27;;;24.70;;
26690;SDS011;14307;51.718;8.938;2023-04-24T09:56:41;25.00;;;23.58;;
26690;SDS011;14307;51.718;8.938;2023-04-24T09:59:10;26.42;;;24.63;;
26690;SDS011;14307;51.718;8.938;2023-04-24T10:01:37;24.80;;;23.30;;
26690;SDS011;14307;51.718;8.938;2023-04-24T10:04:04;24.38;;;22.98;;
26690;SDS011;14307;51.718;8.938;2023-04-24T10:06:34;24.95;;;23.25;;
26690;SDS011;14307;51.718;8.938;2023-04-24T10:09:02;25.15;;;23.65;;
26690;SDS011;14307;51.718;8.938;2023-04-24T10:11:29;25.42;;;23.92;;
26690;SDS011;14307;51.718;8.938;2023-04-24T10:13:56;24.35;;;22.85;;
26690;SDS011;14307;51.718;8.938;2023-04-24T10:16:24;24.45;;;22.95;;
26690;SDS011;14307;51.718;8.938;2023-04-24T10:18:53;24.83;;;23.17;;
26690;SDS011;14307;51.718;8.938;2023-04-24T10:21:21;25.50;;;23.95;;
26690;SDS011;14307;51.718;8.938;2023-04-24T10:23:48;24.05;;;22.65;;
26690;SDS011;14307;51.718;8.938;2023-04-24T10:26:16;24.17;;;22.77;;
26690;SDS011;14307;51.718;8.938;2023-04-24T10:28:44;24.90;;;23.30;;
26690;SDS011;14307;51.718;8.938;2023-04-24T10:31:12;24.77;;;23.38;;
26690;SDS011;14307;51.718;8.938;2023-04-24T10:33:40;24.80;;;23.30;;
26690;SDS011;14307;51.718;8.938;2023-04-24T10:36:11;24.98;;;23.40;;
26690;SDS011;14307;51.718;8.938;2023-04-24T10:38:41;25.38;;;23.88;;
26690;SDS011;14307;51.718;8.938;2023-04-24T10:41:10;25.48;;;23.83;;
26690;SDS011;14307;51.718;8.938;2023-04-24T10:43:45;22.95;;;21.55;;
26690;SDS011;14307;51.718;8.938;2023-04-24T10:46:21;20.52;;;19.45;;
26690;SDS011;14307;51.718;8.938;2023-04-24T10:48:54;18.33;;;17.33;;
26690;SDS011;14307;51.718;8.938;2023-04-24T10:51:22;17.17;;;16.27;;
26690;SDS011;14307;51.718;8.938;2023-04-24T10:53:50;18.50;;;17.45;;
26690;SDS011;14307;51.718;8.938;2023-04-24T10:56:17;19.65;;;18.60;;
26690;SDS011;14307;51.718;8.938;2023-04-24T10:58:45;20.95;;;19.75;;
26690;SDS011;14307;51.718;8.938;2023-04-24T11:01:25;21.25;;;20.05;;
26690;SDS011;14307;51.718;8.938;2023-04-24T11:03:54;20.15;;;19.15;;
26690;SDS011;14307;51.718;8.938;2023-04-24T11:06:35;19.77;;;18.77;;
26690;SDS011;14307;51.718;8.938;2023-04-24T11:11:35;19.42;;;18.42;;
26690;SDS011;14307;51.718;8.938;2023-04-24T11:14:04;18.15;;;17.20;;
26690;SDS011;14307;51.718;8.938;2023-04-24T11:16:43;18.70;;;17.60;;
26690;SDS011;14307;51.718;8.938;2023-04-24T11:19:26;20.15;;;19.00;;
26690;SDS011;14307;51.718;8.938;2023-04-24T11:22:01;21.17;;;19.98;;
26690;SDS011;14307;51.718;8.938;2023-04-24T11:27:15;20.40;;;19.30;;
26690;SDS011;14307;51.718;8.938;2023-04-24T11:34:57;20.27;;;19.17;;
26690;SDS011;14307;51.718;8.938;2023-04-24T11:37:38;18.00;;;17.10;;
26690;SDS011;14307;51.718;8.938;2023-04-24T11:40:07;15.65;;;14.63;;
26690;SDS011;14307;51.718;8.938;2023-04-24T11:42:39;14.88;;;14.18;;
26690;SDS011;14307;51.718;8.938;2023-04-24T11:45:07;13.30;;;12.70;;
26690;SDS011;14307;51.718;8.938;2023-04-24T11:47:36;11.07;;;10.57;;
26690;SDS011;14307;51.718;8.938;2023-04-24T11:50:04;10.00;;;9.40;;
26690;SDS011;14307;51.718;8.938;2023-04-24T11:52:38;8.50;;;7.80;;
26690;SDS011;14307;51.718;8.938;2023-04-24T11:55:06;7.72;;;7.15;;
26690;SDS011;14307;51.718;8.938;2023-04-24T11:57:43;8.02;;;7.05;;
26690;SDS011;14307;51.718;8.938;2023-04-24T12:00:16;9.80;;;8.90;;
26690;SDS011;14307;51.718;8.938;2023-04-24T12:02:48;8.40;;;7.60;;
26690;SDS011;14307;51.718;8.938;2023-04-24T12:05:34;9.52;;;7.72;;
26690;SDS011;14307;51.718;8.938;2023-04-24T12:08:01;6.75;;;6.07;;
26690;SDS011;14307;51.718;8.938;2023-04-24T12:10:28;11.23;;;7.30;;
26690;SDS011;14307;51.718;8.938;2023-04-24T12:12:56;9.02;;;7.15;;
26690;SDS011;14307;51.718;8.938;2023-04-24T12:15:24;7.72;;;6.97;;
26690;SDS011;14307;51.718;8.938;2023-04-24T12:17:52;6.13;;;5.07;;
26690;SDS011;14307;51.718;8.938;2023-04-24T12:20:29;5.82;;;5.22;;
26690;SDS011;14307;51.718;8.938;2023-04-24T12:22:57;6.13;;;5.53;;
26690;SDS011;14307;51.718;8.938;2023-04-24T12:25:26;8.15;;;5.82;;
26690;SDS011;14307;51.718;8.938;2023-04-24T12:30:31;4.65;;;4.25;;
26690;SDS011;14307;51.718;8.938;2023-04-24T12:33:04;4.82;;;4.43;;
26690;SDS011;14307;51.718;8.938;2023-04-24T12:35:32;6.43;;;5.40;;
26690;SDS011;14307;51.718;8.938;2023-04-24T12:38:44;6.47;;;5.88;;
26690;SDS011;14307;51.718;8.938;2023-04-24T12:41:02;6.03;;;5.28;;
26690;SDS011;14307;51.718;8.938;2023-04-24T12:43:30;9.30;;;5.90;;
26690;SDS011;14307;51.718;8.938;2023-04-24T12:45:57;7.53;;;5.22;;
26690;SDS011;14307;51.718;8.938;2023-04-24T12:48:26;6.05;;;4.85;;
26690;SDS011;14307;51.718;8.938;2023-04-24T12:50:53;7.63;;;4.70;;
26690;SDS011;14307;51.718;8.938;2023-04-24T12:53:20;6.88;;;5.97;;
26690;SDS011;14307;51.718;8.938;2023-04-24T12:55:47;7.22;;;5.85;;
26690;SDS011;14307;51.718;8.938;2023-04-24T12:58:19;8.73;;;6.13;;
26690;SDS011;14307;51.718;8.938;2023-04-24T13:00:46;10.18;;;5.50;;
26690;SDS011;14307;51.718;8.938;2023-04-24T13:03:13;7.57;;;6.20;;
26690;SDS011;14307;51.718;8.938;2023-04-24T13:05:42;7.82;;;6.55;;
26690;SDS011;14307;51.718;8.938;2023-04-24T13:08:09;11.50;;;7.70;;
26690;SDS011;14307;51.718;8.938;2023-04-24T13:10:35;10.05;;;8.07;;
26690;SDS011;14307;51.718;8.938;2023-04-24T13:13:02;12.35;;;8.10;;
26690;SDS011;14307;51.718;8.938;2023-04-24T13:15:29;15.23;;;8.73;;
26690;SDS011;14307;51.718;8.938;2023-04-24T13:17:56;13.38;;;8.98;;
26690;SDS011;14307;51.718;8.938;2023-04-24T13:20:23;13.82;;;9.30;;
26690;SDS011;14307;51.718;8.938;2023-04-24T13:22:50;18.48;;;11.82;;
26690;SDS011;14307;51.718;8.938;2023-04-24T13:25:17;20.23;;;11.85;;
26690;SDS011;14307;51.718;8.938;2023-04-24T13:27:44;19.88;;;12.30;;
26690;SDS011;14307;51.718;8.938;2023-04-24T13:30:11;20.88;;;11.20;;
26690;SDS011;14307;51.718;8.938;2023-04-24T13:32:38;18.83;;;10.98;;
26690;SDS011;14307;51.718;8.938;2023-04-24T13:35:05;17.52;;;10.48;;
26690;SDS011;14307;51.718;8.938;2023-04-24T13:37:32;12.75;;;10.05;;
26690;SDS011;14307;51.718;8.938;2023-04-24T13:39:59;17.58;;;10.10;;
26690;SDS011;14307;51.718;8.938;2023-04-24T13:42:26;21.58;;;11.27;;
26690;SDS011;14307;51.718;8.938;2023-04-24T13:44:55;17.15;;;10.57;;
26690;SDS011;14307;51.718;8.938;2023-04-24T13:47:22;25.45;;;12.82;;
26690;SDS011;14307;51.718;8.938;2023-04-24T13:49:49;16.63;;;10.82;;
26690;SDS011;14307;51.718;8.938;2023-04-24T13:52:16;19.27;;;11.27;;
26690;SDS011;14307;51.718;8.938;2023-04-24T13:54:43;18.75;;;12.52;;
26690;SDS011;14307;51.718;8.938;2023-04-24T13:57:09;26.92;;;13.25;;
26690;SDS011;14307;51.718;8.938;2023-04-24T13:59:36;26.85;;;13.60;;
26690;SDS011;14307;51.718;8.938;2023-04-24T14:02:04;20.83;;;12.38;;
26690;SDS011;14307;51.718;8.938;2023-04-24T14:04:31;31.70;;;15.95;;
26690;SDS011;14307;51.718;8.938;2023-04-24T14:06:58;26.60;;;14.95;;
26690;SDS011;14307;51.718;8.938;2023-04-24T14:09:25;33.20;;;17.13;;
26690;SDS011;14307;51.718;8.938;2023-04-24T14:11:52;32.85;;;16.98;;
26690;SDS011;14307;51.718;8.938;2023-04-24T14:14:19;39.15;;;20.75;;
26690;SDS011;14307;51.718;8.938;2023-04-24T14:16:45;31.85;;;20.25;;
26690;SDS011;14307;51.718;8.938;2023-04-24T14:19:12;30.85;;;19.70;;
26690;SDS011;14307;51.718;8.938;2023-04-24T14:21:39;35.05;;;22.67;;
26690;SDS011;14307;51.718;8.938;2023-04-24T14:24:06;34.03;;;21.20;;
26690;SDS011;14307;51.718;8.938;2023-04-24T14:26:33;35.83;;;20.63;;
26690;SDS011;14307;51.718;8.938;2023-04-24T14:28:59;42.45;;;24.88;;
26690;SDS011;14307;51.718;8.938;2023-04-24T14:31:39;41.45;;;26.10;;
26690;SDS011;14307;51.718;8.938;2023-04-24T14:34:06;40.08;;;24.70;;
26690;SDS011;14307;51.718;8.938;2023-04-24T14:36:33;36.60;;;23.88;;
26690;SDS011;14307;51.718;8.938;2023-04-24T14:39:00;50.33;;;27.48;;
26690;SDS011;14307;51.718;8.938;2023-04-24T14:41:31;41.80;;;24.77;;
26690;SDS011;14307;51.718;8.938;2023-04-24T14:44:02;44.75;;;28.05;;
26690;SDS011;14307;51.718;8.938;2023-04-24T14:46:29;41.55;;;25.42;;
26690;SDS011;14307;51.718;8.938;2023-04-24T14:48:56;40.33;;;23.27;;
26690;SDS011;14307;51.718;8.938;2023-04-24T14:51:24;38.45;;;22.65;;
26690;SDS011;14307;51.718;8.938;2023-04-24T14:53:51;39.95;;;22.48;;